sensor_id;sensor_type;location;lat;lon;timestamp;temperature;humidity
9383;DHT22;4731;49.708;10.816;2023-07-28T00:01:50;16.60;99.90
9383;DHT22;4731;49.708;10.816;2023-07-28T00:04:16;16.50;99.90
9383;DHT22;4731;49.708;10.816;2023-07-28T00:06:43;16.60;99.90
9383;DHT22;4731;49.708;10.816;2023-07-28T00:09:10;16.60;99.90
9383;DHT22;4731;49.708;10.816;2023-07-28T00:11:37;16.70;99.90
9383;DHT22;4731;49.708;10.816;2023-07-28T00:14:04;16.60;99.90
9383;DHT22;4731;49.708;10.816;2023-07-28T00:16:32;16.60;99.90
9383;DHT22;4731;49.708;10.816;2023-07-28T00:18:58;16.60;99.90
9383;DHT22;4731;49.708;10.816;2023-07-28T00:21:26;16.60;99.90
9383;DHT22;4731;49.708;10.816;2023-07-28T00:23:52;16.60;99.90
9383;DHT22;4731;49.708;10.816;2023-07-28T00:26:19;16.50;99.90
9383;DHT22;4731;49.708;10.816;2023-07-28T00:28:46;16.50;99.90
9383;DHT22;4731;49.708;10.816;2023-07-28T00:31:12;16.60;99.90
9383;DHT22;4731;49.708;10.816;2023-07-28T00:33:41;16.40;99.90
9383;DHT22;4731;49.708;10.816;2023-07-28T00:36:08;17.80;99.90
9383;DHT22;4731;49.708;10.816;2023-07-28T00:38:34;16.40;99.90
9383;DHT22;4731;49.708;10.816;2023-07-28T00:41:01;16.40;99.90
9383;DHT22;4731;49.708;10.816;2023-07-28T00:43:28;18.40;99.90
9383;DHT22;4731;49.708;10.816;2023-07-28T00:45:55;16.50;99.90
9383;DHT22;4731;49.708;10.816;2023-07-28T00:48:22;16.40;99.90
9383;DHT22;4731;49.708;10.816;2023-07-28T00:50:50;16.30;99.90
9383;DHT22;4731;49.708;10.816;2023-07-28T00:53:18;16.40;99.90
9383;DHT22;4731;49.708;10.816;2023-07-28T00:55:46;16.40;99.90
9383;DHT22;4731;49.708;10.816;2023-07-28T00:58:12;16.40;99.90
9383;DHT22;4731;49.708;10.816;2023-07-28T01:00:39;16.40;99.90
9383;DHT22;4731;49.708;10.816;2023-07-28T01:03:06;16.40;99.90
9383;DHT22;4731;49.708;10.816;2023-07-28T01:05:38;16.40;99.90
9383;DHT22;4731;49.708;10.816;2023-07-28T01:08:13;16.40;99.90
9383;DHT22;4731;49.708;10.816;2023-07-28T01:10:43;16.40;99.90
9383;DHT22;4731;49.708;10.816;2023-07-28T01:13:10;16.50;99.90
9383;DHT22;4731;49.708;10.816;2023-07-28T01:15:36;16.50;99.90
9383;DHT22;4731;49.708;10.816;2023-07-28T01:18:03;18.70;99.90
9383;DHT22;4731;49.708;10.816;2023-07-28T01:20:31;16.50;99.90
9383;DHT22;4731;49.708;10.816;2023-07-28T01:23:12;16.50;99.90
9383;DHT22;4731;49.708;10.816;2023-07-28T01:25:49;16.60;99.90
9383;DHT22;4731;49.708;10.816;2023-07-28T01:28:21;16.60;99.90
9383;DHT22;4731;49.708;10.816;2023-07-28T01:30:48;16.60;99.90
9383;DHT22;4731;49.708;10.816;2023-07-28T01:33:15;16.30;99.90
9383;DHT22;4731;49.708;10.816;2023-07-28T01:35:42;16.60;99.90
9383;DHT22;4731;49.708;10.816;2023-07-28T01:38:08;17.60;99.90
9383;DHT22;4731;49.708;10.816;2023-07-28T01:40:35;16.60;99.90
9383;DHT22;4731;49.708;10.816;2023-07-28T01:43:02;16.60;99.90
9383;DHT22;4731;49.708;10.816;2023-07-28T01:45:30;16.70;99.90
9383;DHT22;4731;49.708;10.816;2023-07-28T01:47:57;16.60;99.90
9383;DHT22;4731;49.708;10.816;2023-07-28T01:50:24;17.60;99.90
9383;DHT22;4731;49.708;10.816;2023-07-28T01:52:51;16.60;99.90
9383;DHT22;4731;49.708;10.816;2023-07-28T01:55:18;16.60;99.90
9383;DHT22;4731;49.708;10.816;2023-07-28T01:57:57;18.90;99.90
9383;DHT22;4731;49.708;10.816;2023-07-28T02:00:26;16.50;99.90
9383;DHT22;4731;49.708;10.816;2023-07-28T02:02:57;16.60;99.90
9383;DHT22;4731;49.708;10.816;2023-07-28T02:05:28;16.60;99.90
9383;DHT22;4731;49.708;10.816;2023-07-28T02:07:58;16.60;99.90
9383;DHT22;4731;49.708;10.816;2023-07-28T02:10:31;16.60;99.90
9383;DHT22;4731;49.708;10.816;2023-07-28T02:13:00;16.60;99.90
9383;DHT22;4731;49.708;10.816;2023-07-28T02:15:29;16.50;99.90
9383;DHT22;4731;49.708;10.816;2023-07-28T02:18:01;16.50;99.90
9383;DHT22;4731;49.708;10.816;2023-07-28T02:20:32;16.50;99.90
9383;DHT22;4731;49.708;10.816;2023-07-28T02:23:03;16.50;99.90
9383;DHT22;4731;49.708;10.816;2023-07-28T02:25:32;16.50;99.90
9383;DHT22;4731;49.708;10.816;2023-07-28T02:28:00;16.50;99.90
9383;DHT22;4731;49.708;10.816;2023-07-28T02:30:30;16.50;99.90
9383;DHT22;4731;49.708;10.816;2023-07-28T02:33:02;16.60;99.90
9383;DHT22;4731;49.708;10.816;2023-07-28T02:35:31;16.60;99.90
9383;DHT22;4731;49.708;10.816;2023-07-28T02:37:58;16.50;99.90
9383;DHT22;4731;49.708;10.816;2023-07-28T02:40:27;16.60;99.90
9383;DHT22;4731;49.708;10.816;2023-07-28T02:42:55;16.60;99.90
9383;DHT22;4731;49.708;10.816;2023-07-28T02:45:23;16.60;99.90
9383;DHT22;4731;49.708;10.816;2023-07-28T02:47:52;16.60;99.90
9383;DHT22;4731;49.708;10.816;2023-07-28T02:50:22;16.50;99.90
9383;DHT22;4731;49.708;10.816;2023-07-28T02:52:50;16.60;99.90
9383;DHT22;4731;49.708;10.816;2023-07-28T02:55:20;16.50;99.90
9383;DHT22;4731;49.708;10.816;2023-07-28T02:57:53;16.50;99.90
9383;DHT22;4731;49.708;10.816;2023-07-28T03:00:21;16.50;99.90
9383;DHT22;4731;49.708;10.816;2023-07-28T03:02:48;16.60;99.90
9383;DHT22;4731;49.708;10.816;2023-07-28T03:05:15;16.50;99.90
9383;DHT22;4731;49.708;10.816;2023-07-28T03:07:43;16.50;99.90
9383;DHT22;4731;49.708;10.816;2023-07-28T03:10:13;16.10;99.90
9383;DHT22;4731;49.708;10.816;2023-07-28T03:12:41;16.60;99.90
9383;DHT22;4731;49.708;10.816;2023-07-28T03:15:08;16.50;99.90
9383;DHT22;4731;49.708;10.816;2023-07-28T03:17:35;16.60;99.90
9383;DHT22;4731;49.708;10.816;2023-07-28T03:20:02;16.60;99.90
9383;DHT22;4731;49.708;10.816;2023-07-28T03:22:29;16.60;99.90
9383;DHT22;4731;49.708;10.816;2023-07-28T03:24:57;16.60;99.90
9383;DHT22;4731;49.708;10.816;2023-07-28T03:27:24;16.50;99.90
9383;DHT22;4731;49.708;10.816;2023-07-28T03:29:51;16.60;99.90
9383;DHT22;4731;49.708;10.816;2023-07-28T03:32:17;17.30;99.90
9383;DHT22;4731;49.708;10.816;2023-07-28T03:34:44;17.30;99.90
9383;DHT22;4731;49.708;10.816;2023-07-28T03:37:11;17.40;99.90
9383;DHT22;4731;49.708;10.816;2023-07-28T03:39:37;16.70;99.90
9383;DHT22;4731;49.708;10.816;2023-07-28T03:42:06;16.60;99.90
9383;DHT22;4731;49.708;10.816;2023-07-28T03:44:33;16.60;99.90
9383;DHT22;4731;49.708;10.816;2023-07-28T03:47:03;16.70;99.90
9383;DHT22;4731;49.708;10.816;2023-07-28T03:49:30;16.60;99.90
9383;DHT22;4731;49.708;10.816;2023-07-28T03:51:57;16.80;99.90
9383;DHT22;4731;49.708;10.816;2023-07-28T03:54:23;16.70;99.90
9383;DHT22;4731;49.708;10.816;2023-07-28T03:56:50;16.70;99.90
9383;DHT22;4731;49.708;10.816;2023-07-28T03:59:19;16.70;99.90
9383;DHT22;4731;49.708;10.816;2023-07-28T04:01:46;16.70;99.90
9383;DHT22;4731;49.708;10.816;2023-07-28T04:04:13;16.70;99.90
9383;DHT22;4731;49.708;10.816;2023-07-28T04:06:41;16.70;99.90
9383;DHT22;4731;49.708;10.816;2023-07-28T04:09:08;16.70;99.90
9383;DHT22;4731;49.708;10.816;2023-07-28T04:11:34;16.70;99.90
9383;DHT22;4731;49.708;10.816;2023-07-28T04:14:02;17.20;99.90
9383;DHT22;4731;49.708;10.816;2023-07-28T04:16:30;16.80;99.90
9383;DHT22;4731;49.708;10.816;2023-07-28T04:18:57;16.80;99.90
9383;DHT22;4731;49.708;10.816;2023-07-28T04:21:24;16.80;99.90
9383;DHT22;4731;49.708;10.816;2023-07-28T04:23:50;16.80;99.90
9383;DHT22;4731;49.708;10.816;2023-07-28T04:26:18;16.90;99.90
9383;DHT22;4731;49.708;10.816;2023-07-28T04:28:45;16.90;99.90
9383;DHT22;4731;49.708;10.816;2023-07-28T04:31:12;16.90;99.90
9383;DHT22;4731;49.708;10.816;2023-07-28T04:33:41;17.00;99.90
9383;DHT22;4731;49.708;10.816;2023-07-28T04:36:08;17.00;99.90
9383;DHT22;4731;49.708;10.816;2023-07-28T04:38:35;17.30;99.90
9383;DHT22;4731;49.708;10.816;2023-07-28T04:41:02;17.10;99.90
9383;DHT22;4731;49.708;10.816;2023-07-28T04:43:28;17.00;99.90
9383;DHT22;4731;49.708;10.816;2023-07-28T04:45:55;17.00;99.90
9383;DHT22;4731;49.708;10.816;2023-07-28T04:48:22;17.00;99.90
9383;DHT22;4731;49.708;10.816;2023-07-28T04:50:50;17.00;99.90
9383;DHT22;4731;49.708;10.816;2023-07-28T04:53:17;17.20;99.90
9383;DHT22;4731;49.708;10.816;2023-07-28T04:55:43;17.10;99.90
9383;DHT22;4731;49.708;10.816;2023-07-28T04:58:10;17.10;99.90
9383;DHT22;4731;49.708;10.816;2023-07-28T05:00:37;17.10;99.90
9383;DHT22;4731;49.708;10.816;2023-07-28T05:03:03;17.10;99.90
9383;DHT22;4731;49.708;10.816;2023-07-28T05:05:30;18.20;99.90
9383;DHT22;4731;49.708;10.816;2023-07-28T05:07:58;17.10;99.90
9383;DHT22;4731;49.708;10.816;2023-07-28T05:10:25;17.20;99.90
9383;DHT22;4731;49.708;10.816;2023-07-28T05:12:51;17.10;99.90
9383;DHT22;4731;49.708;10.816;2023-07-28T05:15:18;17.10;99.90
9383;DHT22;4731;49.708;10.816;2023-07-28T05:17:45;17.10;99.90
9383;DHT22;4731;49.708;10.816;2023-07-28T05:20:12;19.40;99.90
9383;DHT22;4731;49.708;10.816;2023-07-28T05:22:39;17.20;99.90
9383;DHT22;4731;49.708;10.816;2023-07-28T05:25:07;17.30;99.90
9383;DHT22;4731;49.708;10.816;2023-07-28T05:27:34;17.30;99.90
9383;DHT22;4731;49.708;10.816;2023-07-28T05:30:01;17.30;99.90
9383;DHT22;4731;49.708;10.816;2023-07-28T05:32:28;17.40;99.90
9383;DHT22;4731;49.708;10.816;2023-07-28T05:34:54;17.50;99.90
9383;DHT22;4731;49.708;10.816;2023-07-28T05:37:21;17.50;99.90
9383;DHT22;4731;49.708;10.816;2023-07-28T05:39:48;17.40;99.90
9383;DHT22;4731;49.708;10.816;2023-07-28T05:42:16;17.50;99.90
9383;DHT22;4731;49.708;10.816;2023-07-28T05:44:43;17.40;99.90
9383;DHT22;4731;49.708;10.816;2023-07-28T05:47:10;17.50;99.90
9383;DHT22;4731;49.708;10.816;2023-07-28T05:49:36;17.40;99.90
9383;DHT22;4731;49.708;10.816;2023-07-28T05:52:04;17.40;99.90
9383;DHT22;4731;49.708;10.816;2023-07-28T05:54:30;17.40;99.90
9383;DHT22;4731;49.708;10.816;2023-07-28T05:56:57;17.40;99.90
9383;DHT22;4731;49.708;10.816;2023-07-28T05:59:25;17.40;99.90
9383;DHT22;4731;49.708;10.816;2023-07-28T06:01:52;17.90;99.90
9383;DHT22;4731;49.708;10.816;2023-07-28T06:04:19;17.30;99.90
9383;DHT22;4731;49.708;10.816;2023-07-28T06:06:46;17.30;99.90
9383;DHT22;4731;49.708;10.816;2023-07-28T06:09:13;17.60;99.90
9383;DHT22;4731;49.708;10.816;2023-07-28T06:11:39;17.40;99.90
9383;DHT22;4731;49.708;10.816;2023-07-28T06:14:06;17.40;99.90
9383;DHT22;4731;49.708;10.816;2023-07-28T06:16:34;17.40;99.90
9383;DHT22;4731;49.708;10.816;2023-07-28T06:19:01;17.40;99.90
9383;DHT22;4731;49.708;10.816;2023-07-28T06:21:29;17.40;99.90
9383;DHT22;4731;49.708;10.816;2023-07-28T06:23:56;17.40;99.90
9383;DHT22;4731;49.708;10.816;2023-07-28T06:26:23;17.50;99.90
9383;DHT22;4731;49.708;10.816;2023-07-28T06:28:50;17.40;99.90
9383;DHT22;4731;49.708;10.816;2023-07-28T06:31:17;17.50;99.90
9383;DHT22;4731;49.708;10.816;2023-07-28T06:33:46;17.50;99.90
9383;DHT22;4731;49.708;10.816;2023-07-28T06:36:13;19.80;99.90
9383;DHT22;4731;49.708;10.816;2023-07-28T06:38:39;17.50;99.90
9383;DHT22;4731;49.708;10.816;2023-07-28T06:41:08;19.70;99.90
9383;DHT22;4731;49.708;10.816;2023-07-28T06:43:35;17.70;99.90
9383;DHT22;4731;49.708;10.816;2023-07-28T06:46:01;17.70;99.90
9383;DHT22;4731;49.708;10.816;2023-07-28T06:48:29;20.10;99.90
9383;DHT22;4731;49.708;10.816;2023-07-28T06:50:57;17.70;99.90
9383;DHT22;4731;49.708;10.816;2023-07-28T06:53:24;17.90;99.90
9383;DHT22;4731;49.708;10.816;2023-07-28T06:55:51;17.80;99.90
9383;DHT22;4731;49.708;10.816;2023-07-28T06:58:18;18.40;99.90
9383;DHT22;4731;49.708;10.816;2023-07-28T07:00:45;17.80;99.90
9383;DHT22;4731;49.708;10.816;2023-07-28T07:03:11;17.80;99.90
9383;DHT22;4731;49.708;10.816;2023-07-28T07:05:39;17.70;99.90
9383;DHT22;4731;49.708;10.816;2023-07-28T07:08:07;17.80;99.90
9383;DHT22;4731;49.708;10.816;2023-07-28T07:10:34;17.80;99.90
9383;DHT22;4731;49.708;10.816;2023-07-28T07:13:01;17.80;99.90
9383;DHT22;4731;49.708;10.816;2023-07-28T07:15:27;17.80;99.90
9383;DHT22;4731;49.708;10.816;2023-07-28T07:17:54;19.80;99.90
9383;DHT22;4731;49.708;10.816;2023-07-28T07:20:22;17.80;99.90
9383;DHT22;4731;49.708;10.816;2023-07-28T07:22:48;17.80;99.90
9383;DHT22;4731;49.708;10.816;2023-07-28T07:25:17;17.80;99.90
9383;DHT22;4731;49.708;10.816;2023-07-28T07:27:44;18.00;99.90
9383;DHT22;4731;49.708;10.816;2023-07-28T07:30:11;19.40;99.90
9383;DHT22;4731;49.708;10.816;2023-07-28T07:32:38;18.20;99.90
9383;DHT22;4731;49.708;10.816;2023-07-28T07:35:06;19.90;99.90
9383;DHT22;4731;49.708;10.816;2023-07-28T07:37:34;18.80;99.90
9383;DHT22;4731;49.708;10.816;2023-07-28T07:40:00;21.10;99.90
9383;DHT22;4731;49.708;10.816;2023-07-28T07:42:40;19.30;99.90
9383;DHT22;4731;49.708;10.816;2023-07-28T07:45:09;19.40;99.90
9383;DHT22;4731;49.708;10.816;2023-07-28T07:47:36;19.40;99.90
9383;DHT22;4731;49.708;10.816;2023-07-28T07:50:03;19.50;99.90
9383;DHT22;4731;49.708;10.816;2023-07-28T07:52:30;19.60;99.90
9383;DHT22;4731;49.708;10.816;2023-07-28T07:54:57;19.70;99.90
9383;DHT22;4731;49.708;10.816;2023-07-28T07:57:25;19.90;99.90
9383;DHT22;4731;49.708;10.816;2023-07-28T07:59:53;19.60;99.90
9383;DHT22;4731;49.708;10.816;2023-07-28T08:02:20;19.30;99.90
9383;DHT22;4731;49.708;10.816;2023-07-28T08:04:47;19.30;99.90
9383;DHT22;4731;49.708;10.816;2023-07-28T08:07:13;20.70;99.90
9383;DHT22;4731;49.708;10.816;2023-07-28T08:09:41;19.10;99.90
9383;DHT22;4731;49.708;10.816;2023-07-28T08:12:08;18.90;99.90
9383;DHT22;4731;49.708;10.816;2023-07-28T08:14:35;17.50;99.90
9383;DHT22;4731;49.708;10.816;2023-07-28T08:17:04;18.90;99.90
9383;DHT22;4731;49.708;10.816;2023-07-28T08:19:30;18.90;99.90
9383;DHT22;4731;49.708;10.816;2023-07-28T08:21:57;19.00;99.90
9383;DHT22;4731;49.708;10.816;2023-07-28T08:24:33;19.10;99.90
9383;DHT22;4731;49.708;10.816;2023-07-28T08:27:06;19.10;99.90
9383;DHT22;4731;49.708;10.816;2023-07-28T08:29:33;19.20;99.90
9383;DHT22;4731;49.708;10.816;2023-07-28T08:32:00;19.10;99.90
9383;DHT22;4731;49.708;10.816;2023-07-28T08:34:29;19.10;99.90
9383;DHT22;4731;49.708;10.816;2023-07-28T08:36:55;19.10;99.90
9383;DHT22;4731;49.708;10.816;2023-07-28T08:39:22;19.10;99.90
9383;DHT22;4731;49.708;10.816;2023-07-28T08:41:57;19.30;99.90
9383;DHT22;4731;49.708;10.816;2023-07-28T08:44:24;19.60;99.90
9383;DHT22;4731;49.708;10.816;2023-07-28T08:46:52;19.80;99.90
9383;DHT22;4731;49.708;10.816;2023-07-28T08:49:19;20.40;99.90
9383;DHT22;4731;49.708;10.816;2023-07-28T08:51:50;19.70;99.90
9383;DHT22;4731;49.708;10.816;2023-07-28T08:54:16;19.90;99.90
9383;DHT22;4731;49.708;10.816;2023-07-28T08:56:43;19.90;99.90
9383;DHT22;4731;49.708;10.816;2023-07-28T08:59:10;20.00;99.90
9383;DHT22;4731;49.708;10.816;2023-07-28T09:01:39;21.70;99.90
9383;DHT22;4731;49.708;10.816;2023-07-28T09:04:09;19.90;99.90
9383;DHT22;4731;49.708;10.816;2023-07-28T09:06:37;20.00;99.90
9383;DHT22;4731;49.708;10.816;2023-07-28T09:09:07;20.80;99.90
9383;DHT22;4731;49.708;10.816;2023-07-28T09:11:43;20.00;99.90
9383;DHT22;4731;49.708;10.816;2023-07-28T09:14:12;22.00;99.90
9383;DHT22;4731;49.708;10.816;2023-07-28T09:16:39;20.20;99.90
9383;DHT22;4731;49.708;10.816;2023-07-28T09:19:06;19.90;99.90
9383;DHT22;4731;49.708;10.816;2023-07-28T09:21:34;19.80;99.90
9383;DHT22;4731;49.708;10.816;2023-07-28T09:24:03;20.60;99.90
9383;DHT22;4731;49.708;10.816;2023-07-28T09:26:38;21.80;99.90
9383;DHT22;4731;49.708;10.816;2023-07-28T09:29:16;19.90;99.90
9383;DHT22;4731;49.708;10.816;2023-07-28T09:31:44;19.90;99.90
9383;DHT22;4731;49.708;10.816;2023-07-28T09:34:11;19.90;99.90
9383;DHT22;4731;49.708;10.816;2023-07-28T09:36:40;19.90;99.90
9383;DHT22;4731;49.708;10.816;2023-07-28T09:39:07;21.30;99.90
9383;DHT22;4731;49.708;10.816;2023-07-28T09:41:35;22.40;99.90
9383;DHT22;4731;49.708;10.816;2023-07-28T09:44:05;20.20;99.90
9383;DHT22;4731;49.708;10.816;2023-07-28T09:46:33;20.00;99.90
9383;DHT22;4731;49.708;10.816;2023-07-28T09:49:04;20.00;99.90
9383;DHT22;4731;49.708;10.816;2023-07-28T09:51:31;20.10;99.90
9383;DHT22;4731;49.708;10.816;2023-07-28T09:54:04;20.20;99.90
9383;DHT22;4731;49.708;10.816;2023-07-28T09:56:31;20.40;99.90
9383;DHT22;4731;49.708;10.816;2023-07-28T09:59:00;20.50;99.90
9383;DHT22;4731;49.708;10.816;2023-07-28T10:01:30;20.50;99.90
9383;DHT22;4731;49.708;10.816;2023-07-28T10:03:58;20.50;99.90
9383;DHT22;4731;49.708;10.816;2023-07-28T10:06:26;23.00;99.90
9383;DHT22;4731;49.708;10.816;2023-07-28T10:08:53;20.30;99.90
9383;DHT22;4731;49.708;10.816;2023-07-28T10:11:21;21.60;99.90
9383;DHT22;4731;49.708;10.816;2023-07-28T10:13:50;20.40;99.90
9383;DHT22;4731;49.708;10.816;2023-07-28T10:16:17;22.70;99.90
9383;DHT22;4731;49.708;10.816;2023-07-28T10:18:53;21.40;99.90
9383;DHT22;4731;49.708;10.816;2023-07-28T10:21:21;21.70;99.90
9383;DHT22;4731;49.708;10.816;2023-07-28T10:23:54;22.10;99.90
9383;DHT22;4731;49.708;10.816;2023-07-28T10:26:31;23.00;99.90
9383;DHT22;4731;49.708;10.816;2023-07-28T10:29:11;22.20;99.90
9383;DHT22;4731;49.708;10.816;2023-07-28T10:31:49;22.10;99.90
9383;DHT22;4731;49.708;10.816;2023-07-28T10:34:18;22.70;99.90
9383;DHT22;4731;49.708;10.816;2023-07-28T10:36:50;23.00;99.90
9383;DHT22;4731;49.708;10.816;2023-07-28T10:39:22;25.40;99.90
9383;DHT22;4731;49.708;10.816;2023-07-28T10:42:10;23.70;99.90
9383;DHT22;4731;49.708;10.816;2023-07-28T10:44:37;24.30;99.90
9383;DHT22;4731;49.708;10.816;2023-07-28T10:47:07;24.10;99.90
9383;DHT22;4731;49.708;10.816;2023-07-28T10:49:36;23.30;99.90
9383;DHT22;4731;49.708;10.816;2023-07-28T10:52:03;22.90;99.90
9383;DHT22;4731;49.708;10.816;2023-07-28T10:54:31;22.60;99.90
9383;DHT22;4731;49.708;10.816;2023-07-28T10:57:02;22.30;99.90
9383;DHT22;4731;49.708;10.816;2023-07-28T10:59:30;22.70;99.90
9383;DHT22;4731;49.708;10.816;2023-07-28T11:01:56;23.20;99.90
9383;DHT22;4731;49.708;10.816;2023-07-28T11:04:23;23.40;99.90
9383;DHT22;4731;49.708;10.816;2023-07-28T11:06:52;23.90;99.90
9383;DHT22;4731;49.708;10.816;2023-07-28T11:09:22;23.90;99.90
9383;DHT22;4731;49.708;10.816;2023-07-28T11:11:50;25.30;99.90
9383;DHT22;4731;49.708;10.816;2023-07-28T11:14:18;24.60;99.90
9383;DHT22;4731;49.708;10.816;2023-07-28T11:16:46;26.30;99.90
9383;DHT22;4731;49.708;10.816;2023-07-28T11:19:14;24.70;99.90
9383;DHT22;4731;49.708;10.816;2023-07-28T11:21:42;25.00;99.90
9383;DHT22;4731;49.708;10.816;2023-07-28T11:24:11;25.10;99.90
9383;DHT22;4731;49.708;10.816;2023-07-28T11:26:39;24.40;99.90
9383;DHT22;4731;49.708;10.816;2023-07-28T11:29:06;23.80;99.90
9383;DHT22;4731;49.708;10.816;2023-07-28T11:31:33;25.40;99.90
9383;DHT22;4731;49.708;10.816;2023-07-28T11:34:00;23.10;99.90
9383;DHT22;4731;49.708;10.816;2023-07-28T11:36:28;23.50;99.90
9383;DHT22;4731;49.708;10.816;2023-07-28T11:38:58;23.70;99.90
9383;DHT22;4731;49.708;10.816;2023-07-28T11:41:27;24.40;99.90
9383;DHT22;4731;49.708;10.816;2023-07-28T11:43:54;24.70;99.90
9383;DHT22;4731;49.708;10.816;2023-07-28T11:46:34;25.00;99.90
9383;DHT22;4731;49.708;10.816;2023-07-28T11:49:09;25.30;99.90
9383;DHT22;4731;49.708;10.816;2023-07-28T11:51:39;25.50;99.90
9383;DHT22;4731;49.708;10.816;2023-07-28T11:54:10;26.10;99.90
9383;DHT22;4731;49.708;10.816;2023-07-28T11:56:39;26.40;99.90
9383;DHT22;4731;49.708;10.816;2023-07-28T11:59:06;26.10;99.90
9383;DHT22;4731;49.708;10.816;2023-07-28T12:01:34;25.50;99.90
9383;DHT22;4731;49.708;10.816;2023-07-28T12:04:22;24.70;99.90
9383;DHT22;4731;49.708;10.816;2023-07-28T12:07:07;24.20;99.90
9383;DHT22;4731;49.708;10.816;2023-07-28T12:09:47;23.70;99.90
9383;DHT22;4731;49.708;10.816;2023-07-28T12:12:18;23.80;99.90
9383;DHT22;4731;49.708;10.816;2023-07-28T12:14:45;24.30;99.90
9383;DHT22;4731;49.708;10.816;2023-07-28T12:17:12;24.60;99.90
9383;DHT22;4731;49.708;10.816;2023-07-28T12:19:41;25.00;99.90
9383;DHT22;4731;49.708;10.816;2023-07-28T12:22:08;25.10;99.90
9383;DHT22;4731;49.708;10.816;2023-07-28T12:24:35;26.60;99.90
9383;DHT22;4731;49.708;10.816;2023-07-28T12:27:02;24.70;99.90
9383;DHT22;4731;49.708;10.816;2023-07-28T12:29:30;24.70;99.90
9383;DHT22;4731;49.708;10.816;2023-07-28T12:31:56;24.90;99.90
9383;DHT22;4731;49.708;10.816;2023-07-28T12:34:23;25.00;99.90
9383;DHT22;4731;49.708;10.816;2023-07-28T12:36:50;24.70;99.90
9383;DHT22;4731;49.708;10.816;2023-07-28T12:39:16;24.60;99.90
9383;DHT22;4731;49.708;10.816;2023-07-28T12:41:45;25.00;99.90
9383;DHT22;4731;49.708;10.816;2023-07-28T12:44:11;25.20;99.90
9383;DHT22;4731;49.708;10.816;2023-07-28T12:46:40;25.70;99.90
9383;DHT22;4731;49.708;10.816;2023-07-28T12:49:07;25.90;99.90
9383;DHT22;4731;49.708;10.816;2023-07-28T12:51:34;25.80;99.90
9383;DHT22;4731;49.708;10.816;2023-07-28T12:54:02;26.10;99.90
9383;DHT22;4731;49.708;10.816;2023-07-28T12:56:29;26.40;99.90
9383;DHT22;4731;49.708;10.816;2023-07-28T12:58:56;26.50;99.90
9383;DHT22;4731;49.708;10.816;2023-07-28T13:01:23;26.40;99.90
9383;DHT22;4731;49.708;10.816;2023-07-28T13:03:51;26.90;99.90
9383;DHT22;4731;49.708;10.816;2023-07-28T13:06:19;25.80;99.90
9383;DHT22;4731;49.708;10.816;2023-07-28T13:08:46;25.90;99.90
9383;DHT22;4731;49.708;10.816;2023-07-28T13:11:12;26.20;99.90
9383;DHT22;4731;49.708;10.816;2023-07-28T13:13:40;28.10;99.90
9383;DHT22;4731;49.708;10.816;2023-07-28T13:16:07;24.70;99.90
9383;DHT22;4731;49.708;10.816;2023-07-28T13:18:34;26.40;99.90
9383;DHT22;4731;49.708;10.816;2023-07-28T13:21:02;26.30;99.90
9383;DHT22;4731;49.708;10.816;2023-07-28T13:23:29;25.90;99.90
9383;DHT22;4731;49.708;10.816;2023-07-28T13:25:55;25.80;99.90
9383;DHT22;4731;49.708;10.816;2023-07-28T13:28:22;25.60;99.90
9383;DHT22;4731;49.708;10.816;2023-07-28T13:30:50;25.60;99.90
9383;DHT22;4731;49.708;10.816;2023-07-28T13:33:17;25.80;99.90
9383;DHT22;4731;49.708;10.816;2023-07-28T13:35:44;25.90;99.90
9383;DHT22;4731;49.708;10.816;2023-07-28T13:38:12;26.00;99.90
9383;DHT22;4731;49.708;10.816;2023-07-28T13:40:39;25.90;99.90
9383;DHT22;4731;49.708;10.816;2023-07-28T13:43:05;25.40;99.90
9383;DHT22;4731;49.708;10.816;2023-07-28T13:45:32;25.10;99.90
9383;DHT22;4731;49.708;10.816;2023-07-28T13:47:59;24.70;99.90
9383;DHT22;4731;49.708;10.816;2023-07-28T13:50:26;24.80;99.90
9383;DHT22;4731;49.708;10.816;2023-07-28T13:52:53;24.80;99.90
9383;DHT22;4731;49.708;10.816;2023-07-28T13:55:21;24.50;99.90
9383;DHT22;4731;49.708;10.816;2023-07-28T13:57:47;24.60;99.90
9383;DHT22;4731;49.708;10.816;2023-07-28T14:00:14;24.40;99.90
9383;DHT22;4731;49.708;10.816;2023-07-28T14:02:42;24.80;99.90
9383;DHT22;4731;49.708;10.816;2023-07-28T14:05:08;26.30;99.90
9383;DHT22;4731;49.708;10.816;2023-07-28T14:07:35;25.10;99.90
9383;DHT22;4731;49.708;10.816;2023-07-28T14:10:02;25.30;99.90
9383;DHT22;4731;49.708;10.816;2023-07-28T14:12:30;25.30;99.90
9383;DHT22;4731;49.708;10.816;2023-07-28T14:14:57;25.30;99.90
9383;DHT22;4731;49.708;10.816;2023-07-28T14:17:24;25.00;99.90
9383;DHT22;4731;49.708;10.816;2023-07-28T14:19:50;24.80;99.90
9383;DHT22;4731;49.708;10.816;2023-07-28T14:22:17;26.50;99.90
9383;DHT22;4731;49.708;10.816;2023-07-28T14:24:44;24.70;99.90
9383;DHT22;4731;49.708;10.816;2023-07-28T14:27:10;24.50;99.90
9383;DHT22;4731;49.708;10.816;2023-07-28T14:29:39;24.40;99.90
9383;DHT22;4731;49.708;10.816;2023-07-28T14:32:06;24.50;99.90
9383;DHT22;4731;49.708;10.816;2023-07-28T14:34:33;24.40;99.90
9383;DHT22;4731;49.708;10.816;2023-07-28T14:37:03;24.60;99.90
9383;DHT22;4731;49.708;10.816;2023-07-28T14:39:31;24.70;99.90
9383;DHT22;4731;49.708;10.816;2023-07-28T14:41:57;24.80;99.90
9383;DHT22;4731;49.708;10.816;2023-07-28T14:44:24;25.00;99.90
9383;DHT22;4731;49.708;10.816;2023-07-28T14:46:52;24.80;99.90
9383;DHT22;4731;49.708;10.816;2023-07-28T14:49:19;25.40;99.90
9383;DHT22;4731;49.708;10.816;2023-07-28T14:51:46;24.40;99.90
9383;DHT22;4731;49.708;10.816;2023-07-28T14:54:12;24.40;99.90
9383;DHT22;4731;49.708;10.816;2023-07-28T14:56:39;24.20;99.90
9383;DHT22;4731;49.708;10.816;2023-07-28T14:59:06;24.10;99.90
9383;DHT22;4731;49.708;10.816;2023-07-28T15:01:33;24.00;99.90
9383;DHT22;4731;49.708;10.816;2023-07-28T15:04:01;23.80;99.90
9383;DHT22;4731;49.708;10.816;2023-07-28T15:06:30;23.70;99.90
9383;DHT22;4731;49.708;10.816;2023-07-28T15:08:58;23.50;99.90
9383;DHT22;4731;49.708;10.816;2023-07-28T15:11:25;23.30;99.90
9383;DHT22;4731;49.708;10.816;2023-07-28T15:13:51;23.20;99.90
9383;DHT22;4731;49.708;10.816;2023-07-28T15:16:18;23.10;99.90
9383;DHT22;4731;49.708;10.816;2023-07-28T15:18:45;23.10;99.90
9383;DHT22;4731;49.708;10.816;2023-07-28T15:21:13;23.20;99.90
9383;DHT22;4731;49.708;10.816;2023-07-28T15:23:40;23.20;99.90
9383;DHT22;4731;49.708;10.816;2023-07-28T15:26:07;23.40;99.90
9383;DHT22;4731;49.708;10.816;2023-07-28T15:28:34;25.00;99.90
9383;DHT22;4731;49.708;10.816;2023-07-28T15:31:01;23.30;99.90
9383;DHT22;4731;49.708;10.816;2023-07-28T15:33:28;23.40;99.90
9383;DHT22;4731;49.708;10.816;2023-07-28T15:35:56;23.80;99.90
9383;DHT22;4731;49.708;10.816;2023-07-28T15:38:24;23.30;99.90
9383;DHT22;4731;49.708;10.816;2023-07-28T15:40:51;23.20;99.90
9383;DHT22;4731;49.708;10.816;2023-07-28T15:43:22;23.00;99.90
9383;DHT22;4731;49.708;10.816;2023-07-28T15:45:49;22.90;99.90
9383;DHT22;4731;49.708;10.816;2023-07-28T15:48:20;22.30;99.90
9383;DHT22;4731;49.708;10.816;2023-07-28T15:50:47;22.00;99.90